Time;durP1;ratioP1;P1;durP2;ratioP2;P2;SDS_P1;SDS_P2;PMS_P1;PMS_P2;Temp;Humidity;BMP_temperature;BMP_pressure;BME280_temperature;BME280_humidity;BME280_pressure;Samples;Min_cycle;Max_cycle;Signal;HPM_P1;HPM_P2
2022/03/28 00:01:41;;;;;;;9.67;6.67;;;;;;;14.11;42.19;95636.38;5092261;28;20229;-80
2022/03/28 00:04:07;;;;;;;8.17;5.57;;;;;;;14.10;42.42;95639.91;5090027;28;20190;-82
2022/03/28 00:06:34;;;;;;;13.80;6.53;;;;;;;14.08;42.34;95636.66;5094274;28;20599;-79
2022/03/28 00:09:01;;;;;;;6.90;6.10;;;;;;;14.05;42.40;95638.53;5094289;28;20182;-75
2022/03/28 00:11:28;;;;;;;7.57;5.50;;;;;;;14.03;42.52;95637.88;5094121;28;20198;-75
2022/03/28 00:13:55;;;;;;;8.27;6.17;;;;;;;14.03;42.47;95648.16;5092557;28;20186;-76
2022/03/28 00:16:22;;;;;;;10.57;6.73;;;;;;;13.98;42.62;95628.94;5093526;28;20209;-80
2022/03/28 00:18:50;;;;;;;6.23;5.50;;;;;;;13.98;42.58;95634.06;5093291;28;20189;-80
2022/03/28 00:21:17;;;;;;;10.43;6.47;;;;;;;13.97;42.70;95632.44;5093660;28;20236;-76
2022/03/28 00:23:44;;;;;;;8.23;6.20;;;;;;;13.94;42.88;95635.28;5093754;28;20221;-76
2022/03/28 00:26:11;;;;;;;7.97;6.20;;;;;;;13.75;42.96;95600.09;5093820;28;20185;-81
2022/03/28 00:28:38;;;;;;;8.17;6.03;;;;;;;13.89;42.83;95624.59;5093640;28;20687;-76
2022/03/28 00:31:05;;;;;;;10.07;6.40;;;;;;;13.87;42.93;95621.34;5094391;28;20190;-82
2022/03/28 00:33:32;;;;;;;7.67;6.20;;;;;;;13.77;42.89;95606.75;5098761;28;20193;-77
2022/03/28 00:36:00;;;;;;;13.00;6.83;;;;;;;13.82;43.03;95626.91;5100934;28;20201;-76
2022/03/28 00:38:27;;;;;;;11.70;6.43;;;;;;;13.79;43.15;95619.47;5100509;28;20221;-75
2022/03/28 00:40:54;;;;;;;10.67;7.07;;;;;;;13.72;43.21;95618.34;5093681;28;20553;-80
2022/03/28 00:43:21;;;;;;;12.40;7.37;;;;;;;13.72;43.34;95628.63;5095448;28;20197;-85
2022/03/28 00:45:48;;;;;;;9.80;6.87;;;;;;;13.68;43.47;95617.81;5093986;28;20186;-74
2022/03/28 00:48:15;;;;;;;13.17;6.47;;;;;;;13.67;43.42;95615.38;5093116;28;20564;-82
2022/03/28 00:50:42;;;;;;;9.93;6.73;;;;;;;13.64;43.35;95613.06;5092918;28;20640;-79
2022/03/28 00:53:13;;;;;;;9.00;7.10;;;;;;;13.58;43.91;95609.28;5093477;28;20623;-81
2022/03/28 00:55:40;;;;;;;12.23;7.30;;;;;;;13.51;43.73;95610.75;5092626;28;20655;-75
2022/03/28 00:58:07;;;;;;;12.83;7.73;;;;;;;13.52;43.89;95620.09;5093140;28;20201;-84
2022/03/28 01:00:34;;;;;;;10.03;7.70;;;;;;;13.48;43.96;95618.75;5093109;28;20198;-83
2022/03/28 01:03:03;;;;;;;10.20;7.63;;;;;;;13.40;43.86;95610.88;5093634;28;20233;-82
2022/03/28 01:05:31;;;;;;;13.30;8.60;;;;;;;13.42;44.01;95611.56;5091195;28;20284;-76
2022/03/28 01:07:59;;;;;;;12.03;8.67;;;;;;;13.33;44.02;95602.88;5092687;28;20190;-84
2022/03/28 01:10:30;;;;;;;14.20;9.17;;;;;;;13.36;43.99;95609.53;5093165;28;20188;-77
2022/03/28 01:12:58;;;;;;;11.50;8.37;;;;;;;13.32;43.96;95603.03;5093617;28;20197;-77
2022/03/28 01:15:25;;;;;;;15.93;9.10;;;;;;;13.27;43.94;95603.41;5093932;28;20698;-84
2022/03/28 01:18:09;;;;;;;19.50;12.17;;;;;;;13.26;43.80;95606.94;5092370;28;20595;-85
2022/03/28 01:20:38;;;;;;;19.53;11.23;;;;;;;13.18;44.01;95601.59;5092886;28;20567;-85
2022/03/28 01:23:07;;;;;;;18.67;11.97;;;;;;;13.17;43.94;95605.09;5092747;28;20315;-83
2022/03/28 01:25:34;;;;;;;23.83;12.23;;;;;;;13.19;43.90;95608.38;5092493;28;20185;-80
2022/03/28 01:28:02;;;;;;;21.60;12.27;;;;;;;13.11;43.99;95601.31;5092924;28;20250;-84
2022/03/28 01:30:31;;;;;;;20.63;11.77;;;;;;;13.14;44.12;95611.31;5092796;28;20258;-83
2022/03/28 01:32:59;;;;;;;18.50;12.67;;;;;;;13.12;44.08;95604.69;5092452;28;20196;-81
2022/03/28 01:35:34;;;;;;;16.33;11.80;;;;;;;13.05;44.11;95609.53;5092518;28;20239;-74
2022/03/28 01:38:02;;;;;;;18.43;11.90;;;;;;;13.05;44.04;95607.78;5092302;28;20215;-80
2022/03/28 01:40:31;;;;;;;17.60;12.53;;;;;;;12.99;44.29;95604.91;5092653;28;20193;-81
2022/03/28 01:42:58;;;;;;;16.57;12.27;;;;;;;12.99;44.31;95604.91;5091930;28;20298;-79
2022/03/28 01:45:25;;;;;;;23.97;13.23;;;;;;;12.93;44.35;95595.97;5092509;28;20246;-76
2022/03/28 01:47:53;;;;;;;20.13;13.10;;;;;;;12.94;44.46;95602.72;5091821;28;20198;-79
2022/03/28 01:50:21;;;;;;;19.40;12.93;;;;;;;12.92;44.46;95601.25;5091871;28;20189;-76
2022/03/28 01:52:48;;;;;;;21.97;12.73;;;;;;;12.89;44.49;95602.31;5091674;28;20182;-83
2022/03/28 01:55:15;;;;;;;19.13;12.00;;;;;;;12.88;44.41;95600.69;5092417;28;20244;-79
2022/03/28 01:57:44;;;;;;;20.27;11.87;;;;;;;12.85;44.63;95603.50;5091795;28;20219;-76
2022/03/28 02:00:13;;;;;;;18.30;12.27;;;;;;;12.84;44.56;95604.47;5092230;28;20178;-76
2022/03/28 02:02:40;;;;;;;16.03;11.33;;;;;;;12.79;44.73;95602.28;5091408;28;20218;-81
2022/03/28 02:05:11;;;;;;;17.37;11.77;;;;;;;12.79;44.67;95601.47;5091819;28;20200;-77
2022/03/28 02:07:39;;;;;;;19.23;12.33;;;;;;;12.74;45.01;95601.84;5091789;28;20530;-79
2022/03/28 02:10:08;;;;;;;16.67;10.50;;;;;;;12.68;45.01;95604.91;5091983;28;20224;-77
2022/03/28 02:12:35;;;;;;;15.17;10.40;;;;;;;12.69;45.38;95595.47;5091736;28;20187;-77
2022/03/28 02:15:04;;;;;;;20.47;9.83;;;;;;;12.67;45.20;95607.63;5091664;28;20186;-80
2022/03/28 02:17:31;;;;;;;18.47;11.10;;;;;;;12.62;45.40;95602.06;5097732;28;20216;-76
2022/03/28 02:19:58;;;;;;;17.10;11.73;;;;;;;12.54;45.39;95590.69;5098171;28;20250;-81
2022/03/28 02:22:25;;;;;;;18.50;11.27;;;;;;;12.58;45.23;95603.25;5091729;28;20561;-82
2022/03/28 02:24:52;;;;;;;19.10;10.03;;;;;;;12.57;45.31;95599.88;5091714;28;20558;-81
2022/03/28 02:27:19;;;;;;;15.60;10.87;;;;;;;12.55;45.53;95599.19;5091532;28;20625;-78
2022/03/28 02:29:46;;;;;;;17.97;10.40;;;;;;;12.50;45.71;95602.13;5091225;28;20198;-79
2022/03/28 02:32:15;;;;;;;16.83;10.33;;;;;;;12.49;45.73;95604.84;5091936;28;20193;-80
2022/03/28 02:34:42;;;;;;;21.80;11.23;;;;;;;12.46;45.65;95602.50;5091522;28;20190;-84
2022/03/28 02:37:09;;;;;;;18.77;10.97;;;;;;;12.43;45.94;95606.13;5091929;28;20198;-80
2022/03/28 02:39:36;;;;;;;17.63;11.00;;;;;;;12.41;45.93;95600.34;5091894;28;20195;-80
2022/03/28 02:42:03;;;;;;;17.10;11.53;;;;;;;12.36;46.12;95599.91;5092164;28;20930;-78
2022/03/28 02:44:30;;;;;;;18.57;10.60;;;;;;;12.35;46.15;95602.56;5092326;28;20210;-81
2022/03/28 02:46:56;;;;;;;16.30;10.90;;;;;;;12.27;45.80;95592.97;5091835;28;20538;-84
2022/03/28 02:49:25;;;;;;;14.47;10.57;;;;;;;12.30;46.07;95608.09;5091392;28;20220;-75
2022/03/28 02:51:51;;;;;;;15.67;11.07;;;;;;;12.29;46.17;95611.59;5090586;28;20182;-81
2022/03/28 02:54:18;;;;;;;15.80;10.87;;;;;;;12.24;46.38;95600.91;5091439;28;20197;-78
2022/03/28 02:56:45;;;;;;;18.10;10.80;;;;;;;12.23;46.40;95610.34;5090924;28;20182;-83
2022/03/28 02:59:13;;;;;;;18.83;10.90;;;;;;;12.23;46.32;95605.22;5090914;28;20189;-81
2022/03/28 03:01:41;;;;;;;23.03;11.33;;;;;;;12.22;46.58;95610.50;5090133;28;20550;-83
2022/03/28 03:04:07;;;;;;;21.37;10.70;;;;;;;12.12;46.56;95601.91;5091113;28;20204;-80
2022/03/28 03:06:36;;;;;;;19.77;11.70;;;;;;;12.14;46.72;95618.00;5090428;28;20194;-83
2022/03/28 03:09:02;;;;;;;18.80;10.37;;;;;;;12.14;46.72;95620.56;5090845;28;20201;-83
2022/03/28 03:11:29;;;;;;;18.30;11.23;;;;;;;12.07;46.81;95609.97;5090641;28;20190;-80
2022/03/28 03:13:57;;;;;;;22.60;10.23;;;;;;;12.05;47.06;95620.34;5090793;28;20189;-83
2022/03/28 03:16:24;;;;;;;18.47;10.27;;;;;;;12.03;47.07;95619.66;5090573;28;20197;-79
2022/03/28 03:18:51;;;;;;;19.20;11.27;;;;;;;12.02;47.10;95619.78;5090642;28;20200;-80
2022/03/28 03:21:18;;;;;;;17.20;10.60;;;;;;;11.96;47.10;95610.84;5090184;28;20193;-83
2022/03/28 03:23:46;;;;;;;21.83;10.70;;;;;;;11.95;47.15;95619.44;5090407;28;20236;-83
2022/03/28 03:26:13;;;;;;;17.17;9.63;;;;;;;11.91;47.28;95614.69;5090018;28;20185;-83
2022/03/28 03:28:39;;;;;;;17.57;11.27;;;;;;;11.90;47.20;95619.00;5091204;28;20194;-83
2022/03/28 03:31:07;;;;;;;14.93;9.50;;;;;;;11.89;47.21;95624.28;5091321;28;20182;-84
2022/03/28 03:33:34;;;;;;;13.40;9.93;;;;;;;11.86;47.44;95625.31;5091018;28;20209;-86
2022/03/28 03:36:01;;;;;;;17.37;10.37;;;;;;;11.84;47.47;95624.63;5090386;28;20194;-86
2022/03/28 03:38:29;;;;;;;20.27;10.77;;;;;;;11.83;47.46;95629.88;5090102;28;20197;-83
2022/03/28 03:40:57;;;;;;;18.60;10.77;;;;;;;11.75;47.64;95615.91;5089720;28;20205;-84
2022/03/28 03:43:25;;;;;;;18.10;10.60;;;;;;;11.78;47.69;95617.38;5090232;28;20710;-87
2022/03/28 03:45:52;;;;;;;20.60;10.70;;;;;;;11.70;47.54;95617.19;5090362;28;20621;-85
2022/03/28 03:48:19;;;;;;;14.93;10.40;;;;;;;11.73;47.70;95633.13;5090192;28;20604;-74
2022/03/28 03:50:47;;;;;;;26.57;11.03;;;;;;;11.70;47.61;95627.44;5089770;28;20182;-78
2022/03/28 03:53:14;;;;;;;15.80;10.53;;;;;;;11.69;47.98;95636.06;5089947;28;20201;-76
2022/03/28 03:55:41;;;;;;;19.27;10.97;;;;;;;11.62;47.87;95625.50;5090003;28;20195;-82
2022/03/28 03:58:09;;;;;;;16.37;10.17;;;;;;;11.66;47.89;95638.88;5091629;28;20198;-77
2022/03/28 04:00:36;;;;;;;19.23;11.57;;;;;;;11.64;47.99;95633.06;5090170;28;20648;-76
2022/03/28 04:03:03;;;;;;;19.67;10.97;;;;;;;11.61;47.99;95639.22;5089782;28;20592;-78
2022/03/28 04:05:30;;;;;;;18.53;10.57;;;;;;;11.59;48.19;95630.03;5089454;28;20582;-78
2022/03/28 04:07:56;;;;;;;19.80;11.73;;;;;;;11.58;47.97;95633.53;5089618;28;20660;-76
2022/03/28 04:10:23;;;;;;;22.03;11.83;;;;;;;11.58;48.16;95639.47;5089191;28;20197;-76
2022/03/28 04:12:50;;;;;;;22.20;11.27;;;;;;;11.54;48.41;95638.91;5089543;28;20261;-77
2022/03/28 04:15:19;;;;;;;23.03;10.50;;;;;;;11.52;48.39;95637.38;5090108;28;20204;-74
2022/03/28 04:17:46;;;;;;;18.90;11.33;;;;;;;11.49;48.43;95632.53;5090634;28;20197;-74
2022/03/28 04:20:15;;;;;;;19.77;12.87;;;;;;;11.51;48.46;95640.88;5090154;28;20200;-77
2022/03/28 04:22:43;;;;;;;23.87;13.00;;;;;;;11.51;48.45;95646.00;5091086;28;20684;-79
2022/03/28 04:25:11;;;;;;;23.87;12.77;;;;;;;11.50;48.46;95647.75;5088597;28;20193;-74
2022/03/28 04:27:38;;;;;;;31.17;13.10;;;;;;;11.52;48.66;95648.44;5089947;28;20227;-78
2022/03/28 04:30:07;;;;;;;20.87;12.43;;;;;;;11.52;48.60;95647.63;5090438;28;20194;-76
2022/03/28 04:32:35;;;;;;;22.63;12.93;;;;;;;11.53;48.50;95644.97;5089455;28;20190;-77
2022/03/28 04:35:02;;;;;;;22.83;12.03;;;;;;;11.56;48.58;95639.56;5089907;28;20608;-78
2022/03/28 04:37:33;;;;;;;24.17;12.23;;;;;;;11.59;48.74;95641.09;5089576;28;20188;-76
2022/03/28 04:40:00;;;;;;;16.83;11.70;;;;;;;11.62;48.66;95638.31;5089390;28;20224;-77
2022/03/28 04:42:27;;;;;;;23.57;12.33;;;;;;;11.68;48.41;95632.69;5088541;28;20209;-78
2022/03/28 04:44:54;;;;;;;21.93;11.93;;;;;;;11.74;48.41;95639.91;5089110;28;20197;-75
2022/03/28 04:47:21;;;;;;;20.73;12.17;;;;;;;11.78;48.46;95635.31;5089614;28;20193;-80
2022/03/28 04:49:49;;;;;;;18.80;11.47;;;;;;;11.86;48.36;95637.31;5088861;28;20193;-79
2022/03/28 04:52:17;;;;;;;16.47;10.07;;;;;;;11.84;48.23;95624.63;5093739;28;20541;-78
2022/03/28 04:54:45;;;;;;;12.20;5.83;;;;;;;12.39;82.47;95638.13;5093337;28;20185;-76
2022/03/28 04:57:11;;;;;;;15.43;6.07;;;;;;;13.17;84.24;95634.19;5091912;28;20189;-78
2022/03/28 04:59:39;;;;;;;16.97;8.33;;;;;;;13.95;77.90;95630.03;5093375;28;20190;-73
2022/03/28 05:02:06;;;;;;;22.33;9.93;;;;;;;14.35;70.89;95629.06;5092260;28;20228;-72
2022/03/28 05:04:33;;;;;;;21.20;9.73;;;;;;;14.53;65.57;95629.19;5093347;28;20221;-86
2022/03/28 05:07:01;;;;;;;22.40;10.17;;;;;;;14.71;61.04;95627.50;5093862;28;20189;-84
2022/03/28 05:09:28;;;;;;;17.00;9.63;;;;;;;14.98;56.89;95628.50;5093250;28;20204;-76
2022/03/28 05:11:56;;;;;;;19.70;9.83;;;;;;;15.31;55.17;95640.03;5093566;28;20205;-84
2022/03/28 05:14:23;;;;;;;19.97;10.37;;;;;;;15.71;53.85;95651.75;5095480;28;20185;-80
2022/03/28 05:16:51;;;;;;;15.87;9.67;;;;;;;16.10;52.42;95633.41;5101538;28;20190;-76
2022/03/28 05:19:18;;;;;;;20.83;11.07;;;;;;;16.70;50.56;95651.63;5103594;28;20272;-81
2022/03/28 05:21:46;;;;;;;17.77;10.40;;;;;;;17.25;49.07;95653.91;5108296;28;20194;-76
2022/03/28 05:24:14;;;;;;;16.87;11.03;;;;;;;17.85;47.27;95646.03;5104231;28;20237;-83
2022/03/28 05:26:41;;;;;;;23.23;12.20;;;;;;;18.44;45.89;95645.94;5094769;28;20198;-87
2022/03/28 05:29:08;;;;;;;27.00;12.00;;;;;;;19.04;44.34;95650.69;5094523;28;20189;-83
2022/03/28 05:31:35;;;;;;;17.97;11.40;;;;;;;19.65;43.18;95654.41;5094629;28;20255;-79
2022/03/28 05:34:02;;;;;;;27.30;12.60;;;;;;;20.25;41.59;95652.88;5093832;28;20679;-76
2022/03/28 05:36:29;;;;;;;29.03;13.50;;;;;;;20.87;40.32;95655.31;5094114;28;20232;-85
2022/03/28 05:38:56;;;;;;;25.50;13.00;;;;;;;21.51;38.82;95654.81;5093468;28;20194;-82
2022/03/28 05:41:24;;;;;;;21.20;12.40;;;;;;;22.09;37.68;95642.63;5093871;28;20193;-88
2022/03/28 05:43:51;;;;;;;21.97;13.17;;;;;;;22.76;36.51;95659.69;5093185;28;20228;-86
2022/03/28 05:46:19;;;;;;;21.65;13.90;;;;;;;23.40;35.44;95667.34;5093074;28;20201;-86
2022/03/28 05:48:45;;;;;;;25.85;13.55;;;;;;;24.02;34.43;95663.75;5092512;28;20657;-81
2022/03/28 05:51:12;;;;;;;24.70;13.82;;;;;;;24.61;33.46;95659.66;5092959;28;20723;-86
2022/03/28 05:53:39;;;;;;;25.17;13.85;;;;;;;25.22;32.59;95671.69;5094444;28;20235;-85
2022/03/28 05:56:06;;;;;;;25.52;14.25;;;;;;;25.79;31.45;95674.56;5093313;28;20186;-81
2022/03/28 05:58:34;;;;;;;29.85;13.80;;;;;;;26.37;30.74;95677.88;5093899;28;20189;-81
2022/03/28 06:01:01;;;;;;;28.88;13.75;;;;;;;26.91;29.74;95668.59;5092203;28;20181;-86
2022/03/28 06:03:28;;;;;;;26.40;13.00;;;;;;;27.43;28.87;95665.69;5091484;28;20210;-76
2022/03/28 06:05:56;;;;;;;24.42;14.02;;;;;;;27.92;28.61;95667.34;5092266;28;20194;-77
2022/03/28 06:08:23;;;;;;;21.85;13.27;;;;;;;28.39;27.95;95659.66;5093953;28;20704;-84
2022/03/28 06:10:50;;;;;;;28.77;14.48;;;;;;;28.91;27.35;95673.00;5093075;28;20190;-80
2022/03/28 06:13:18;;;;;;;25.00;13.88;;;;;;;29.38;26.44;95670.38;5094893;28;20201;-77
2022/03/28 06:15:46;;;;;;;19.55;13.48;;;;;;;29.86;26.43;95676.34;5092262;28;20182;-80
2022/03/28 06:18:13;;;;;;;17.50;12.35;;;;;;;30.30;25.61;95679.31;5092429;28;20645;-76
2022/03/28 06:20:40;;;;;;;19.85;12.98;;;;;;;30.73;25.13;95678.72;5084240;28;20575;-80
2022/03/28 06:23:09;;;;;;;17.35;13.75;;;;;;;31.14;24.89;95672.22;5090352;28;20229;-78
2022/03/28 06:25:36;;;;;;;19.48;12.80;;;;;;;31.53;24.50;95672.25;5091111;28;20213;-74
2022/03/28 06:28:03;;;;;;;30.30;13.50;;;;;;;31.93;23.85;95685.16;5090788;28;20394;-80
2022/03/28 06:30:30;;;;;;;22.77;14.20;;;;;;;32.29;23.38;95677.59;5090545;28;20190;-78
2022/03/28 06:32:58;;;;;;;26.95;14.85;;;;;;;32.61;22.98;95676.88;5090902;28;20191;-74
2022/03/28 06:35:25;;;;;;;17.80;13.45;;;;;;;32.93;23.08;95671.56;5090732;28;20198;-82
2022/03/28 06:37:53;;;;;;;23.63;13.57;;;;;;;33.28;22.39;95672.84;5088028;28;20217;-77
2022/03/28 06:40:20;;;;;;;20.30;12.77;;;;;;;33.61;22.14;95677.81;5089787;28;20226;-82
2022/03/28 06:42:47;;;;;;;23.05;12.90;;;;;;;33.92;21.86;95688.53;5090052;28;20182;-84
2022/03/28 06:45:15;;;;;;;24.95;13.27;;;;;;;34.21;21.82;95691.56;5089535;28;20197;-79
2022/03/28 06:47:42;;;;;;;20.33;11.98;;;;;;;34.47;21.28;95692.44;5090205;28;20465;-78
2022/03/28 06:50:10;;;;;;;20.42;12.60;;;;;;;34.73;20.95;95695.13;5090293;28;20208;-79
2022/03/28 06:52:37;;;;;;;15.80;11.48;;;;;;;34.99;20.81;95690.63;5089407;28;20621;-82
2022/03/28 06:55:05;;;;;;;17.40;11.85;;;;;;;35.18;20.71;95673.03;5089669;28;20228;-80
2022/03/28 06:57:32;;;;;;;17.73;11.52;;;;;;;35.40;20.48;95678.81;5089410;28;20190;-79
2022/03/28 06:59:58;;;;;;;21.83;11.77;;;;;;;35.64;20.10;95673.72;5089642;28;20251;-77
2022/03/28 07:02:25;;;;;;;21.58;11.20;;;;;;;35.87;19.97;95682.94;5089058;28;20185;-81
2022/03/28 07:04:52;;;;;;;23.33;11.52;;;;;;;36.07;20.04;95687.41;5089651;28;20232;-75
2022/03/28 07:07:20;;;;;;;14.00;10.50;;;;;;;36.29;19.79;95688.88;5089139;28;20201;-77
2022/03/28 07:09:47;;;;;;;14.57;9.63;;;;;;;36.47;19.67;95690.13;5089371;28;20334;-81
2022/03/28 07:12:14;;;;;;;18.40;10.60;;;;;;;36.61;19.45;95685.72;5088864;28;20186;-82
2022/03/28 07:14:42;;;;;;;14.65;9.73;;;;;;;36.74;19.36;95686.97;5088567;28;20217;-77
2022/03/28 07:17:09;;;;;;;18.48;9.48;;;;;;;36.86;19.28;95674.84;5089172;28;20194;-80
2022/03/28 07:19:36;;;;;;;17.65;9.65;;;;;;;37.03;19.48;95679.81;5089592;28;20185;-76
2022/03/28 07:22:04;;;;;;;12.70;9.02;;;;;;;37.18;19.04;95681.56;5088957;28;20232;-80
2022/03/28 07:24:32;;;;;;;10.48;8.95;;;;;;;37.26;18.97;95685.44;5089079;28;20228;-73
2022/03/28 07:27:00;;;;;;;12.48;9.20;;;;;;;37.40;18.81;95679.19;5089169;28;20212;-81
2022/03/28 07:29:26;;;;;;;16.52;8.95;;;;;;;37.52;18.70;95689.47;5089182;28;20181;-79
2022/03/28 07:31:54;;;;;;;14.02;8.43;;;;;;;37.62;18.78;95689.38;5089300;28;20205;-77
2022/03/28 07:34:34;;;;;;;16.63;9.43;;;;;;;37.72;18.54;95691.09;5088992;28;20205;-77
2022/03/28 07:37:03;;;;;;;11.93;7.75;;;;;;;37.76;18.52;95684.13;5088719;28;20193;-74
2022/03/28 07:39:33;;;;;;;8.88;7.72;;;;;;;37.84;18.38;95688.81;5088772;28;20235;-80
2022/03/28 07:41:59;;;;;;;10.15;7.80;;;;;;;37.89;18.37;95683.44;5089008;28;20568;-74
2022/03/28 07:44:26;;;;;;;11.20;7.20;;;;;;;37.88;18.52;95676.53;5089147;28;20228;-75
2022/03/28 07:46:53;;;;;;;14.20;7.07;;;;;;;37.94;18.37;95684.47;5089211;28;20697;-81
2022/03/28 07:49:23;;;;;;;12.52;7.72;;;;;;;37.97;18.21;95683.91;5086351;28;20441;-82
2022/03/28 07:51:50;;;;;;;12.45;7.85;;;;;;;37.97;18.36;95684.69;5088751;28;20315;-80
2022/03/28 07:54:17;;;;;;;10.15;7.45;;;;;;;37.99;18.07;95684.38;5088987;28;20189;-83
2022/03/28 07:56:45;;;;;;;9.45;7.00;;;;;;;37.97;18.20;95679.34;5088645;28;20239;-81
2022/03/28 07:59:13;;;;;;;11.00;6.78;;;;;;;37.95;18.19;95678.81;5089014;28;20194;-80
2022/03/28 08:01:40;;;;;;;7.40;6.60;;;;;;;37.92;18.16;95679.41;5089151;28;20567;-83
2022/03/28 08:04:06;;;;;;;10.73;7.15;;;;;;;37.90;18.20;95674.34;5088972;28;20217;-82
2022/03/28 08:06:33;;;;;;;7.93;7.07;;;;;;;37.88;18.27;95673.06;5089696;28;20190;-80
2022/03/28 08:09:00;;;;;;;8.70;6.50;;;;;;;37.81;18.49;95669.91;5088598;28;20556;-79
2022/03/28 08:11:27;;;;;;;10.77;7.18;;;;;;;37.73;17.95;95665.19;5089360;28;20198;-81
2022/03/28 08:13:56;;;;;;;7.72;6.53;;;;;;;37.63;18.17;95666.13;5086511;28;20554;-82
2022/03/28 08:16:23;;;;;;;10.48;7.03;;;;;;;37.57;18.34;95661.94;5086308;28;20627;-80
2022/03/28 08:18:50;;;;;;;11.80;6.85;;;;;;;37.48;18.14;95668.97;5088959;28;20267;-81
2022/03/28 08:21:17;;;;;;;8.20;6.80;;;;;;;37.36;18.33;95656.00;5088974;28;20189;-77
2022/03/28 08:23:43;;;;;;;10.32;6.40;;;;;;;37.23;18.43;95652.13;5088438;28;20237;-82
2022/03/28 08:26:10;;;;;;;7.95;7.13;;;;;;;37.07;18.32;95653.38;5090899;28;20323;-82
2022/03/28 08:28:37;;;;;;;7.57;6.43;;;;;;;36.86;18.58;95645.53;5092835;28;20209;-76
2022/03/28 08:31:05;;;;;;;9.10;7.45;;;;;;;36.65;18.76;95636.13;5092327;28;20193;-79
2022/03/28 08:33:32;;;;;;;12.95;6.82;;;;;;;36.46;18.90;95637.88;5092108;28;20193;-73
2022/03/28 08:35:59;;;;;;;14.95;8.02;;;;;;;36.28;18.94;95644.66;5089670;28;20572;-77
2022/03/28 08:38:26;;;;;;;11.93;8.30;;;;;;;36.10;18.96;95638.13;5089519;28;20197;-74
2022/03/28 08:40:53;;;;;;;11.98;8.45;;;;;;;35.86;19.03;95630.75;5089246;28;20200;-76
2022/03/28 08:43:20;;;;;;;10.70;7.70;;;;;;;35.66;18.94;95630.84;5089663;28;20254;-76
2022/03/28 08:45:49;;;;;;;10.85;8.18;;;;;;;35.33;19.30;95601.16;5089875;28;20208;-81
2022/03/28 08:48:18;;;;;;;15.60;8.00;;;;;;;35.31;19.14;95613.13;5091406;28;20219;-76
2022/03/28 08:50:46;;;;;;;14.10;8.40;;;;;;;35.14;19.47;95611.59;5089525;28;20202;-81
2022/03/28 08:53:14;;;;;;;11.65;8.15;;;;;;;34.99;19.30;95614.31;5091981;28;20204;-75
2022/03/28 08:55:42;;;;;;;11.35;7.80;;;;;;;34.81;19.69;95602.34;5092121;28;20221;-76
2022/03/28 08:58:09;;;;;;;14.48;8.98;;;;;;;34.63;19.78;95603.72;5091638;28;20194;-76
2022/03/28 09:00:36;;;;;;;9.20;8.23;;;;;;;34.43;20.03;95601.03;5091768;28;20197;-78
2022/03/28 09:03:03;;;;;;;10.85;8.90;;;;;;;34.23;19.88;95603.66;5090865;28;20193;-75
2022/03/28 09:05:32;;;;;;;12.57;7.93;;;;;;;33.97;20.01;95600.19;5092244;28;20202;-81
2022/03/28 09:07:59;;;;;;;9.23;8.00;;;;;;;33.66;19.99;95590.28;5091586;28;20193;-81
2022/03/28 09:10:28;;;;;;;11.32;8.38;;;;;;;33.33;20.43;95582.69;5092197;28;20194;-78
2022/03/28 09:13:00;;;;;;;16.73;9.10;;;;;;;33.02;20.34;95582.56;5091533;28;20205;-78
2022/03/28 09:15:27;;;;;;;10.55;8.32;;;;;;;32.74;20.87;95583.72;5092289;28;20220;-80
2022/03/28 09:17:58;;;;;;;14.43;9.13;;;;;;;32.42;20.66;95581.09;5091361;28;20221;-80
2022/03/28 09:20:26;;;;;;;17.13;8.55;;;;;;;32.05;20.92;95583.66;5091781;28;20190;-76
2022/03/28 09:22:54;;;;;;;16.23;9.82;;;;;;;31.65;21.08;95572.41;5090871;28;20217;-78
2022/03/28 09:25:21;;;;;;;9.65;8.65;;;;;;;31.31;21.30;95565.69;5091329;28;20664;-76
2022/03/28 09:27:49;;;;;;;17.15;8.88;;;;;;;31.04;21.41;95569.00;5091636;28;20209;-83
2022/03/28 09:30:17;;;;;;;18.45;9.45;;;;;;;30.86;21.56;95562.16;5091745;28;20669;-82
2022/03/28 09:32:47;;;;;;;12.55;8.70;;;;;;;30.71;21.57;95552.19;5091044;28;20580;-78
2022/03/28 09:35:19;;;;;;;11.23;8.75;;;;;;;30.58;21.94;95554.38;5091652;28;20348;-79
2022/03/28 09:37:58;;;;;;;13.15;9.15;;;;;;;30.45;22.38;95542.28;5088195;28;20196;-78
2022/03/28 09:40:31;;;;;;;15.00;9.45;;;;;;;30.33;22.11;95539.75;5091976;28;20193;-79
2022/03/28 09:42:58;;;;;;;12.70;8.70;;;;;;;30.23;22.43;95532.47;5089840;28;20938;-82
2022/03/28 09:45:28;;;;;;;15.98;8.57;;;;;;;30.17;22.39;95524.69;5088486;28;20225;-84
2022/03/28 09:48:01;;;;;;;17.83;8.73;;;;;;;30.08;22.61;95524.25;5088002;28;20189;-80
2022/03/28 09:50:38;;;;;;;13.27;9.75;;;;;;;29.95;22.67;95525.38;5091148;28;20289;-81
2022/03/28 09:53:22;;;;;;;14.02;9.07;;;;;;;29.85;22.97;95508.59;5090718;28;20216;-80
2022/03/28 09:55:55;;;;;;;16.33;8.30;;;;;;;29.78;22.97;95510.59;5090233;28;20197;-82
2022/03/28 09:58:45;;;;;;;10.63;8.50;;;;;;;29.67;22.95;95510.41;5090786;28;20181;-81
2022/03/28 10:01:18;;;;;;;16.20;9.23;;;;;;;29.55;22.87;95498.28;5089716;28;20209;-81
2022/03/28 10:03:47;;;;;;;16.52;9.48;;;;;;;29.42;23.14;95496.75;5090573;28;20177;-78
2022/03/28 10:06:15;;;;;;;19.80;9.55;;;;;;;29.27;23.37;95491.19;5090812;28;20197;-79
2022/03/28 10:08:44;;;;;;;15.48;9.10;;;;;;;29.10;23.18;95493.75;5089951;28;20181;-80
2022/03/28 10:11:12;;;;;;;12.07;9.48;;;;;;;28.92;23.24;95487.59;5090136;28;20193;-79
2022/03/28 10:13:39;;;;;;;13.30;8.90;;;;;;;28.73;23.84;95486.16;5090254;28;20186;-80
2022/03/28 10:16:08;;;;;;;14.63;9.52;;;;;;;28.57;24.14;95478.97;5090067;28;20201;-79
2022/03/28 10:18:36;;;;;;;22.45;9.88;;;;;;;28.38;24.18;95463.31;5090406;28;20182;-78
2022/03/28 10:21:06;;;;;;;12.85;9.60;;;;;;;28.25;23.98;95458.25;5090576;28;20190;-80
2022/03/28 10:23:37;;;;;;;12.70;10.27;;;;;;;28.09;24.40;95459.75;5090013;28;20225;-80
2022/03/28 10:26:08;;;;;;;14.50;9.85;;;;;;;27.93;24.19;95450.69;5087469;28;20241;-77
2022/03/28 10:28:35;;;;;;;14.82;9.90;;;;;;;27.83;24.49;95441.78;5088278;28;20228;-79
2022/03/28 10:31:16;;;;;;;21.05;9.77;;;;;;;27.77;24.43;95435.59;5091204;28;20270;-75
2022/03/28 10:33:48;;;;;;;17.63;9.80;;;;;;;27.75;24.51;95437.66;5089825;28;20201;-74
2022/03/28 10:36:24;;;;;;;11.63;9.18;;;;;;;27.75;24.36;95429.75;5088806;28;20217;-75
2022/03/28 10:38:52;;;;;;;17.73;9.82;;;;;;;27.72;24.93;95424.91;5089555;28;20216;-81
2022/03/28 10:41:21;;;;;;;12.48;9.25;;;;;;;27.67;24.59;95422.97;5089072;28;20228;-77
2022/03/28 10:43:48;;;;;;;16.73;10.32;;;;;;;27.62;24.87;95411.53;5089122;28;20189;-79
2022/03/28 10:46:18;;;;;;;16.73;10.35;;;;;;;27.59;24.86;95410.19;5089687;28;20263;-78
2022/03/28 10:48:47;;;;;;;18.15;9.60;;;;;;;27.55;25.07;95408.22;5089639;28;20213;-76
2022/03/28 10:51:16;;;;;;;12.27;9.48;;;;;;;27.47;25.17;95404.91;5089440;28;20189;-80
2022/03/28 10:53:46;;;;;;;12.75;9.55;;;;;;;27.44;25.21;95402.72;5089651;28;20565;-77
2022/03/28 10:56:18;;;;;;;16.73;9.52;;;;;;;27.37;25.02;95394.13;5089719;28;20197;-78
2022/03/28 10:58:51;;;;;;;15.55;10.35;;;;;;;27.27;25.24;95381.53;5089504;28;20288;-79
2022/03/28 11:01:30;;;;;;;15.88;10.02;;;;;;;27.25;25.20;95381.00;5089594;28;20630;-79
2022/03/28 11:04:05;;;;;;;12.50;9.50;;;;;;;27.25;25.18;95388.88;5086663;28;20213;-81
2022/03/28 11:06:59;;;;;;;18.13;9.68;;;;;;;27.18;25.55;95385.53;5088976;28;20552;-79
2022/03/28 11:09:47;;;;;;;15.13;8.93;;;;;;;27.12;25.43;95380.38;5089055;28;20194;-77
2022/03/28 11:12:16;;;;;;;14.63;10.20;;;;;;;27.06;25.58;95374.16;5088556;28;20279;-82
2022/03/28 11:14:54;;;;;;;13.18;9.02;;;;;;;27.01;25.62;95381.91;5089215;28;20201;-79
2022/03/28 11:17:23;;;;;;;12.52;8.98;;;;;;;26.98;25.52;95374.47;5089253;28;20193;-78
2022/03/28 11:19:57;;;;;;;17.35;9.32;;;;;;;26.88;25.66;95363.72;5089315;28;20649;-76
2022/03/28 11:22:55;;;;;;;16.88;9.60;;;;;;;26.85;25.78;95364.16;5088843;28;20192;-76
2022/03/28 11:25:42;;;;;;;15.75;9.30;;;;;;;26.43;25.95;95307.16;5086805;28;20213;-76
2022/03/28 11:28:20;;;;;;;13.55;8.73;;;;;;;26.66;25.92;95342.41;5089268;28;20197;-77